sensor_id;sensor_type;location;lat;lon;timestamp;P1;durP1;ratioP1;P2;durP2;ratioP2
34184;SDS011;20454;48.100;11.776;2022-11-15T00:00:46;10.52;;;8.77;;
34184;SDS011;20454;48.100;11.776;2022-11-15T00:03:15;8.20;;;7.40;;
34184;SDS011;20454;48.100;11.776;2022-11-15T00:05:46;10.00;;;8.73;;
34184;SDS011;20454;48.100;11.776;2022-11-15T00:08:12;8.43;;;7.57;;
34184;SDS011;20454;48.100;11.776;2022-11-15T00:10:38;8.93;;;8.13;;
34184;SDS011;20454;48.100;11.776;2022-11-15T00:13:11;9.60;;;8.70;;
34184;SDS011;20454;48.100;11.776;2022-11-15T00:15:38;8.27;;;7.47;;
34184;SDS011;20454;48.100;11.776;2022-11-15T00:18:06;7.30;;;6.65;;
34184;SDS011;20454;48.100;11.776;2022-11-15T00:20:38;8.18;;;6.97;;
34184;SDS011;20454;48.100;11.776;2022-11-15T00:23:04;7.90;;;7.20;;
34184;SDS011;20454;48.100;11.776;2022-11-15T00:25:30;8.43;;;7.72;;
34184;SDS011;20454;48.100;11.776;2022-11-15T00:27:57;7.28;;;6.57;;
34184;SDS011;20454;48.100;11.776;2022-11-15T00:30:24;7.88;;;7.07;;
34184;SDS011;20454;48.100;11.776;2022-11-15T00:32:51;6.75;;;6.05;;
34184;SDS011;20454;48.100;11.776;2022-11-15T00:35:17;8.10;;;6.80;;
34184;SDS011;20454;48.100;11.776;2022-11-15T00:37:43;8.30;;;6.15;;
34184;SDS011;20454;48.100;11.776;2022-11-15T00:40:09;8.98;;;7.18;;
34184;SDS011;20454;48.100;11.776;2022-11-15T00:42:35;7.30;;;6.35;;
34184;SDS011;20454;48.100;11.776;2022-11-15T00:45:01;7.95;;;7.25;;
34184;SDS011;20454;48.100;11.776;2022-11-15T00:47:27;8.32;;;6.65;;
34184;SDS011;20454;48.100;11.776;2022-11-15T00:49:53;6.57;;;5.93;;
34184;SDS011;20454;48.100;11.776;2022-11-15T00:52:18;10.77;;;8.07;;
34184;SDS011;20454;48.100;11.776;2022-11-15T00:54:44;11.40;;;8.85;;
34184;SDS011;20454;48.100;11.776;2022-11-15T00:57:10;12.95;;;8.90;;
34184;SDS011;20454;48.100;11.776;2022-11-15T00:59:35;17.60;;;8.85;;
34184;SDS011;20454;48.100;11.776;2022-11-15T01:02:01;13.90;;;7.95;;
34184;SDS011;20454;48.100;11.776;2022-11-15T01:04:27;9.52;;;7.70;;
34184;SDS011;20454;48.100;11.776;2022-11-15T01:06:53;12.80;;;7.38;;
34184;SDS011;20454;48.100;11.776;2022-11-15T01:09:19;8.32;;;6.95;;
34184;SDS011;20454;48.100;11.776;2022-11-15T01:11:45;8.10;;;6.82;;
34184;SDS011;20454;48.100;11.776;2022-11-15T01:14:10;8.15;;;6.40;;
34184;SDS011;20454;48.100;11.776;2022-11-15T01:16:36;8.60;;;6.22;;
34184;SDS011;20454;48.100;11.776;2022-11-15T01:19:02;13.98;;;8.40;;
34184;SDS011;20454;48.100;11.776;2022-11-15T01:21:28;10.55;;;7.53;;
34184;SDS011;20454;48.100;11.776;2022-11-15T01:23:54;10.90;;;7.35;;
34184;SDS011;20454;48.100;11.776;2022-11-15T01:26:22;9.77;;;7.72;;
34184;SDS011;20454;48.100;11.776;2022-11-15T01:28:49;8.25;;;7.40;;
34184;SDS011;20454;48.100;11.776;2022-11-15T01:31:16;8.20;;;7.00;;
34184;SDS011;20454;48.100;11.776;2022-11-15T01:33:45;11.02;;;6.75;;
34184;SDS011;20454;48.100;11.776;2022-11-15T01:36:14;10.15;;;7.50;;
34184;SDS011;20454;48.100;11.776;2022-11-15T01:38:46;12.73;;;7.20;;
34184;SDS011;20454;48.100;11.776;2022-11-15T01:41:20;10.40;;;7.63;;
34184;SDS011;20454;48.100;11.776;2022-11-15T01:43:51;7.90;;;7.10;;
34184;SDS011;20454;48.100;11.776;2022-11-15T01:46:30;9.43;;;7.93;;
34184;SDS011;20454;48.100;11.776;2022-11-15T01:49:05;14.65;;;7.30;;
34184;SDS011;20454;48.100;11.776;2022-11-15T01:51:45;13.52;;;8.20;;
34184;SDS011;20454;48.100;11.776;2022-11-15T01:54:13;11.93;;;7.65;;
34184;SDS011;20454;48.100;11.776;2022-11-15T01:56:46;10.20;;;6.93;;
34184;SDS011;20454;48.100;11.776;2022-11-15T01:59:23;9.50;;;6.90;;
34184;SDS011;20454;48.100;11.776;2022-11-15T02:01:49;10.05;;;7.07;;
34184;SDS011;20454;48.100;11.776;2022-11-15T02:04:24;9.57;;;6.72;;
34184;SDS011;20454;48.100;11.776;2022-11-15T02:06:53;8.20;;;6.32;;
34184;SDS011;20454;48.100;11.776;2022-11-15T02:09:18;12.48;;;7.07;;
34184;SDS011;20454;48.100;11.776;2022-11-15T02:11:44;10.20;;;6.55;;
34184;SDS011;20454;48.100;11.776;2022-11-15T02:14:12;7.10;;;6.40;;
34184;SDS011;20454;48.100;11.776;2022-11-15T02:23:04;6.72;;;6.13;;
34184;SDS011;20454;48.100;11.776;2022-11-15T02:34:27;6.70;;;5.90;;
34184;SDS011;20454;48.100;11.776;2022-11-15T02:37:36;8.93;;;6.47;;
34184;SDS011;20454;48.100;11.776;2022-11-15T02:43:07;7.90;;;6.00;;
34184;SDS011;20454;48.100;11.776;2022-11-15T02:46:04;6.10;;;5.50;;
34184;SDS011;20454;48.100;11.776;2022-11-15T02:48:39;7.68;;;5.85;;
34184;SDS011;20454;48.100;11.776;2022-11-15T02:51:08;8.15;;;6.13;;
34184;SDS011;20454;48.100;11.776;2022-11-15T02:53:34;6.07;;;5.57;;
34184;SDS011;20454;48.100;11.776;2022-11-15T02:56:00;7.88;;;5.90;;
34184;SDS011;20454;48.100;11.776;2022-11-15T05:31:31;4.10;;;3.70;;
34184;SDS011;20454;48.100;11.776;2022-11-15T05:34:04;4.28;;;3.97;;
34184;SDS011;20454;48.100;11.776;2022-11-15T05:36:38;4.57;;;4.18;;
34184;SDS011;20454;48.100;11.776;2022-11-15T05:39:10;5.00;;;4.55;;
34184;SDS011;20454;48.100;11.776;2022-11-15T05:41:41;6.55;;;5.95;;
34184;SDS011;20454;48.100;11.776;2022-11-15T05:44:19;5.60;;;5.13;;
34184;SDS011;20454;48.100;11.776;2022-11-15T05:46:47;6.97;;;6.15;;
34184;SDS011;20454;48.100;11.776;2022-11-15T05:49:18;23.50;;;15.32;;
34184;SDS011;20454;48.100;11.776;2022-11-15T05:51:49;22.77;;;13.63;;
34184;SDS011;20454;48.100;11.776;2022-11-15T05:54:17;15.18;;;10.73;;
34184;SDS011;20454;48.100;11.776;2022-11-15T05:56:44;12.88;;;10.35;;
34184;SDS011;20454;48.100;11.776;2022-11-15T05:59:10;11.80;;;8.90;;
34184;SDS011;20454;48.100;11.776;2022-11-15T06:01:36;8.77;;;6.78;;
34184;SDS011;20454;48.100;11.776;2022-11-15T07:46:06;8.73;;;7.38;;
34184;SDS011;20454;48.100;11.776;2022-11-15T07:48:34;7.07;;;6.03;;
34184;SDS011;20454;48.100;11.776;2022-11-15T07:51:01;4.63;;;4.22;;
34184;SDS011;20454;48.100;11.776;2022-11-15T07:53:27;4.93;;;4.53;;
34184;SDS011;20454;48.100;11.776;2022-11-15T07:55:53;6.20;;;5.60;;
34184;SDS011;20454;48.100;11.776;2022-11-15T07:58:19;10.70;;;9.80;;
34184;SDS011;20454;48.100;11.776;2022-11-15T08:00:45;15.35;;;14.07;;
34184;SDS011;20454;48.100;11.776;2022-11-15T08:03:11;9.10;;;8.50;;
34184;SDS011;20454;48.100;11.776;2022-11-15T08:05:40;12.88;;;6.80;;
34184;SDS011;20454;48.100;11.776;2022-11-15T08:08:07;16.40;;;8.40;;
34184;SDS011;20454;48.100;11.776;2022-11-15T08:10:37;8.43;;;5.90;;
34184;SDS011;20454;48.100;11.776;2022-11-15T08:13:04;6.18;;;5.35;;
34184;SDS011;20454;48.100;11.776;2022-11-15T08:15:33;5.75;;;5.25;;
34184;SDS011;20454;48.100;11.776;2022-11-15T08:18:01;5.78;;;5.25;;
34184;SDS011;20454;48.100;11.776;2022-11-15T08:20:31;4.15;;;3.85;;
34184;SDS011;20454;48.100;11.776;2022-11-15T08:22:58;4.00;;;3.70;;
34184;SDS011;20454;48.100;11.776;2022-11-15T08:25:25;3.63;;;3.30;;
34184;SDS011;20454;48.100;11.776;2022-11-15T08:27:53;3.80;;;3.50;;
34184;SDS011;20454;48.100;11.776;2022-11-15T08:30:21;3.22;;;2.92;;
34184;SDS011;20454;48.100;11.776;2022-11-15T08:32:47;3.83;;;3.10;;
34184;SDS011;20454;48.100;11.776;2022-11-15T08:35:17;3.03;;;2.83;;
34184;SDS011;20454;48.100;11.776;2022-11-15T08:37:44;3.05;;;2.85;;
34184;SDS011;20454;48.100;11.776;2022-11-15T08:40:10;3.88;;;3.58;;
34184;SDS011;20454;48.100;11.776;2022-11-15T08:42:36;3.20;;;2.97;;
34184;SDS011;20454;48.100;11.776;2022-11-15T08:45:02;3.25;;;2.95;;
34184;SDS011;20454;48.100;11.776;2022-11-15T08:47:29;3.67;;;3.10;;
34184;SDS011;20454;48.100;11.776;2022-11-15T08:49:54;6.15;;;3.38;;
34184;SDS011;20454;48.100;11.776;2022-11-15T08:52:20;4.13;;;3.47;;
34184;SDS011;20454;48.100;11.776;2022-11-15T08:54:46;4.30;;;3.90;;
34184;SDS011;20454;48.100;11.776;2022-11-15T08:57:12;3.47;;;2.83;;
34184;SDS011;20454;48.100;11.776;2022-11-15T08:59:38;4.28;;;2.60;;
34184;SDS011;20454;48.100;11.776;2022-11-15T09:02:04;3.00;;;2.80;;
34184;SDS011;20454;48.100;11.776;2022-11-15T09:04:30;2.10;;;2.00;;
34184;SDS011;20454;48.100;11.776;2022-11-15T09:06:56;2.47;;;2.28;;
34184;SDS011;20454;48.100;11.776;2022-11-15T09:09:22;2.03;;;1.85;;
34184;SDS011;20454;48.100;11.776;2022-11-15T09:11:47;3.38;;;2.25;;
34184;SDS011;20454;48.100;11.776;2022-11-15T09:14:14;1.95;;;1.77;;
34184;SDS011;20454;48.100;11.776;2022-11-15T09:16:40;2.28;;;1.80;;
34184;SDS011;20454;48.100;11.776;2022-11-15T09:19:05;1.90;;;1.73;;
34184;SDS011;20454;48.100;11.776;2022-11-15T09:21:31;3.42;;;1.60;;
34184;SDS011;20454;48.100;11.776;2022-11-15T09:23:58;3.95;;;3.35;;
34184;SDS011;20454;48.100;11.776;2022-11-15T09:26:24;2.45;;;2.33;;
34184;SDS011;20454;48.100;11.776;2022-11-15T09:28:50;2.72;;;2.53;;
34184;SDS011;20454;48.100;11.776;2022-11-15T09:31:16;1.70;;;1.60;;
34184;SDS011;20454;48.100;11.776;2022-11-15T09:33:45;2.22;;;2.03;;
34184;SDS011;20454;48.100;11.776;2022-11-15T09:36:11;2.05;;;1.63;;
34184;SDS011;20454;48.100;11.776;2022-11-15T09:38:37;2.67;;;1.70;;
34184;SDS011;20454;48.100;11.776;2022-11-15T09:49:23;1.85;;;1.40;;
34184;SDS011;20454;48.100;11.776;2022-11-15T09:51:49;1.63;;;1.52;;
34184;SDS011;20454;48.100;11.776;2022-11-15T09:54:34;1.92;;;1.70;;
34184;SDS011;20454;48.100;11.776;2022-11-15T09:57:14;1.45;;;1.35;;
34184;SDS011;20454;48.100;11.776;2022-11-15T09:59:59;1.27;;;1.10;;
34184;SDS011;20454;48.100;11.776;2022-11-15T10:05:44;1.75;;;1.65;;
34184;SDS011;20454;48.100;11.776;2022-11-15T10:08:27;1.60;;;1.50;;
34184;SDS011;20454;48.100;11.776;2022-11-15T10:11:24;1.70;;;1.60;;
34184;SDS011;20454;48.100;11.776;2022-11-15T10:13:56;1.55;;;1.45;;
34184;SDS011;20454;48.100;11.776;2022-11-15T10:16:37;2.80;;;1.55;;
34184;SDS011;20454;48.100;11.776;2022-11-15T10:23:02;1.73;;;1.63;;
34184;SDS011;20454;48.100;11.776;2022-11-15T10:25:33;4.68;;;3.45;;
34184;SDS011;20454;48.100;11.776;2022-11-15T10:33:13;1.58;;;1.48;;
34184;SDS011;20454;48.100;11.776;2022-11-15T10:41:13;1.73;;;1.63;;
34184;SDS011;20454;48.100;11.776;2022-11-15T10:43:44;1.60;;;1.50;;
34184;SDS011;20454;48.100;11.776;2022-11-15T10:46:29;2.15;;;1.95;;
34184;SDS011;20454;48.100;11.776;2022-11-15T10:49:05;2.08;;;1.90;;
34184;SDS011;20454;48.100;11.776;2022-11-15T10:51:49;2.00;;;1.90;;
34184;SDS011;20454;48.100;11.776;2022-11-15T10:54:27;2.35;;;2.08;;
34184;SDS011;20454;48.100;11.776;2022-11-15T10:57:17;2.40;;;1.98;;
34184;SDS011;20454;48.100;11.776;2022-11-15T10:59:51;2.45;;;2.17;;
34184;SDS011;20454;48.100;11.776;2022-11-15T11:04:57;2.65;;;2.10;;
34184;SDS011;20454;48.100;11.776;2022-11-15T11:07:25;4.35;;;1.98;;
34184;SDS011;20454;48.100;11.776;2022-11-15T11:09:57;2.42;;;1.85;;
34184;SDS011;20454;48.100;11.776;2022-11-15T11:12:44;2.97;;;1.77;;
34184;SDS011;20454;48.100;11.776;2022-11-15T11:15:11;2.22;;;2.03;;
34184;SDS011;20454;48.100;11.776;2022-11-15T11:20:41;2.10;;;1.90;;
34184;SDS011;20454;48.100;11.776;2022-11-15T11:32:30;2.40;;;2.20;;
34184;SDS011;20454;48.100;11.776;2022-11-15T11:40:44;1.63;;;1.52;;
34184;SDS011;20454;48.100;11.776;2022-11-15T11:43:49;2.17;;;2.00;;
34184;SDS011;20454;48.100;11.776;2022-11-15T11:46:47;2.25;;;1.52;;
34184;SDS011;20454;48.100;11.776;2022-11-15T11:49:47;3.25;;;1.63;;
34184;SDS011;20454;48.100;11.776;2022-11-15T11:55:19;2.58;;;1.63;;
34184;SDS011;20454;48.100;11.776;2022-11-15T11:58:14;5.93;;;1.75;;
34184;SDS011;20454;48.100;11.776;2022-11-15T12:01:04;1.35;;;1.25;;
34184;SDS011;20454;48.100;11.776;2022-11-15T12:03:55;2.88;;;1.42;;
34184;SDS011;20454;48.100;11.776;2022-11-15T12:15:14;1.85;;;1.70;;
34184;SDS011;20454;48.100;11.776;2022-11-15T12:17:48;2.17;;;1.70;;
34184;SDS011;20454;48.100;11.776;2022-11-15T12:20:24;1.77;;;1.67;;
34184;SDS011;20454;48.100;11.776;2022-11-15T12:23:03;2.78;;;1.42;;
34184;SDS011;20454;48.100;11.776;2022-11-15T12:28:52;1.83;;;1.67;;
34184;SDS011;20454;48.100;11.776;2022-11-15T12:31:24;1.95;;;1.55;;
34184;SDS011;20454;48.100;11.776;2022-11-15T12:34:03;2.53;;;1.60;;
34184;SDS011;20454;48.100;11.776;2022-11-15T12:36:45;1.95;;;1.83;;
34184;SDS011;20454;48.100;11.776;2022-11-15T12:39:13;2.63;;;1.83;;
34184;SDS011;20454;48.100;11.776;2022-11-15T12:41:41;1.58;;;1.48;;
34184;SDS011;20454;48.100;11.776;2022-11-15T12:44:11;1.48;;;1.38;;
34184;SDS011;20454;48.100;11.776;2022-11-15T13:02:19;1.95;;;1.75;;
34184;SDS011;20454;48.100;11.776;2022-11-15T13:04:47;1.30;;;1.20;;
34184;SDS011;20454;48.100;11.776;2022-11-15T13:20:54;1.50;;;1.33;;
34184;SDS011;20454;48.100;11.776;2022-11-15T13:23:20;1.63;;;1.50;;
34184;SDS011;20454;48.100;11.776;2022-11-15T13:26:08;1.70;;;1.55;;
34184;SDS011;20454;48.100;11.776;2022-11-15T13:31:19;1.60;;;1.50;;
34184;SDS011;20454;48.100;11.776;2022-11-15T13:33:49;13.27;;;1.67;;
34184;SDS011;20454;48.100;11.776;2022-11-15T13:36:17;2.38;;;1.40;;
34184;SDS011;20454;48.100;11.776;2022-11-15T13:38:54;2.95;;;1.88;;
34184;SDS011;20454;48.100;11.776;2022-11-15T13:41:24;1.95;;;1.85;;
34184;SDS011;20454;48.100;11.776;2022-11-15T13:46:30;1.67;;;1.58;;
34184;SDS011;20454;48.100;11.776;2022-11-15T13:49:02;1.80;;;1.70;;
34184;SDS011;20454;48.100;11.776;2022-11-15T13:57:24;1.50;;;1.40;;
34184;SDS011;20454;48.100;11.776;2022-11-15T13:59:55;3.20;;;2.22;;
34184;SDS011;20454;48.100;11.776;2022-11-15T14:02:31;2.33;;;2.13;;
34184;SDS011;20454;48.100;11.776;2022-11-15T14:05:16;2.83;;;2.63;;
34184;SDS011;20454;48.100;11.776;2022-11-15T14:07:59;2.92;;;2.72;;
34184;SDS011;20454;48.100;11.776;2022-11-15T14:10:40;6.15;;;5.03;;
34184;SDS011;20454;48.100;11.776;2022-11-15T14:13:10;6.75;;;6.03;;
34184;SDS011;20454;48.100;11.776;2022-11-15T14:15:53;4.22;;;3.83;;
34184;SDS011;20454;48.100;11.776;2022-11-15T14:21:23;4.53;;;3.58;;
34184;SDS011;20454;48.100;11.776;2022-11-15T14:23:49;8.13;;;5.32;;
34184;SDS011;20454;48.100;11.776;2022-11-15T14:26:26;6.72;;;5.40;;
34184;SDS011;20454;48.100;11.776;2022-11-15T14:28:56;4.20;;;3.78;;
34184;SDS011;20454;48.100;11.776;2022-11-15T14:31:22;3.85;;;3.38;;
34184;SDS011;20454;48.100;11.776;2022-11-15T14:33:48;3.70;;;3.25;;
34184;SDS011;20454;48.100;11.776;2022-11-15T14:36:15;4.47;;;4.00;;
34184;SDS011;20454;48.100;11.776;2022-11-15T14:38:44;4.20;;;3.30;;
34184;SDS011;20454;48.100;11.776;2022-11-15T14:43:48;3.47;;;2.35;;
34184;SDS011;20454;48.100;11.776;2022-11-15T14:46:15;3.00;;;2.78;;
34184;SDS011;20454;48.100;11.776;2022-11-15T14:48:42;2.58;;;2.38;;
34184;SDS011;20454;48.100;11.776;2022-11-15T14:51:11;2.90;;;2.58;;
34184;SDS011;20454;48.100;11.776;2022-11-15T14:53:39;12.65;;;10.80;;
34184;SDS011;20454;48.100;11.776;2022-11-15T14:56:06;10.35;;;9.48;;
34184;SDS011;20454;48.100;11.776;2022-11-15T14:58:32;8.25;;;7.53;;
34184;SDS011;20454;48.100;11.776;2022-11-15T15:00:58;7.07;;;6.47;;
34184;SDS011;20454;48.100;11.776;2022-11-15T15:03:24;5.30;;;4.90;;
34184;SDS011;20454;48.100;11.776;2022-11-15T15:05:50;3.50;;;3.20;;
34184;SDS011;20454;48.100;11.776;2022-11-15T15:08:15;3.65;;;3.03;;
34184;SDS011;20454;48.100;11.776;2022-11-15T15:10:42;2.75;;;2.55;;
34184;SDS011;20454;48.100;11.776;2022-11-15T15:13:15;4.25;;;3.10;;
34184;SDS011;20454;48.100;11.776;2022-11-15T15:15:47;4.32;;;3.92;;
34184;SDS011;20454;48.100;11.776;2022-11-15T15:18:14;3.88;;;3.15;;
34184;SDS011;20454;48.100;11.776;2022-11-15T15:20:41;3.42;;;3.10;;
34184;SDS011;20454;48.100;11.776;2022-11-15T15:23:13;3.60;;;3.13;;
34184;SDS011;20454;48.100;11.776;2022-11-15T15:25:45;5.90;;;3.30;;
34184;SDS011;20454;48.100;11.776;2022-11-15T15:28:13;4.00;;;2.97;;
34184;SDS011;20454;48.100;11.776;2022-11-15T15:30:40;3.95;;;3.10;;
34184;SDS011;20454;48.100;11.776;2022-11-15T15:33:06;5.40;;;3.35;;
34184;SDS011;20454;48.100;11.776;2022-11-15T15:35:32;4.28;;;3.25;;
34184;SDS011;20454;48.100;11.776;2022-11-15T15:37:59;2.90;;;2.58;;
34184;SDS011;20454;48.100;11.776;2022-11-15T15:40:27;6.10;;;2.88;;
34184;SDS011;20454;48.100;11.776;2022-11-15T15:42:56;3.17;;;2.58;;
34184;SDS011;20454;48.100;11.776;2022-11-15T15:45:22;4.22;;;3.50;;
34184;SDS011;20454;48.100;11.776;2022-11-15T15:47:50;3.75;;;3.30;;
34184;SDS011;20454;48.100;11.776;2022-11-15T15:52:46;6.20;;;3.72;;
34184;SDS011;20454;48.100;11.776;2022-11-15T15:55:12;9.65;;;4.18;;
34184;SDS011;20454;48.100;11.776;2022-11-15T15:57:37;4.38;;;3.60;;
34184;SDS011;20454;48.100;11.776;2022-11-15T16:00:04;4.25;;;3.95;;
34184;SDS011;20454;48.100;11.776;2022-11-15T16:02:30;3.63;;;2.83;;
34184;SDS011;20454;48.100;11.776;2022-11-15T16:04:56;4.20;;;3.20;;
34184;SDS011;20454;48.100;11.776;2022-11-15T16:07:22;4.55;;;4.10;;
34184;SDS011;20454;48.100;11.776;2022-11-15T16:09:48;4.97;;;3.65;;
34184;SDS011;20454;48.100;11.776;2022-11-15T16:12:28;6.95;;;5.20;;
34184;SDS011;20454;48.100;11.776;2022-11-15T16:14:59;5.93;;;5.32;;
34184;SDS011;20454;48.100;11.776;2022-11-15T16:17:28;5.90;;;4.13;;
34184;SDS011;20454;48.100;11.776;2022-11-15T16:19:57;6.10;;;4.35;;
34184;SDS011;20454;48.100;11.776;2022-11-15T16:22:23;5.53;;;4.10;;
34184;SDS011;20454;48.100;11.776;2022-11-15T16:24:49;5.03;;;4.22;;
34184;SDS011;20454;48.100;11.776;2022-11-15T16:27:15;5.70;;;4.45;;
34184;SDS011;20454;48.100;11.776;2022-11-15T16:29:44;4.78;;;4.25;;
34184;SDS011;20454;48.100;11.776;2022-11-15T16:32:11;6.13;;;5.53;;
34184;SDS011;20454;48.100;11.776;2022-11-15T16:34:37;6.85;;;5.40;;
34184;SDS011;20454;48.100;11.776;2022-11-15T16:37:03;11.68;;;7.97;;
34184;SDS011;20454;48.100;11.776;2022-11-15T16:39:30;12.60;;;10.00;;
34184;SDS011;20454;48.100;11.776;2022-11-15T16:41:56;16.65;;;11.32;;
34184;SDS011;20454;48.100;11.776;2022-11-15T16:44:23;15.55;;;11.52;;
34184;SDS011;20454;48.100;11.776;2022-11-15T16:46:49;12.30;;;10.02;;
34184;SDS011;20454;48.100;11.776;2022-11-15T16:49:16;13.88;;;10.70;;
34184;SDS011;20454;48.100;11.776;2022-11-15T16:51:47;19.52;;;12.35;;
34184;SDS011;20454;48.100;11.776;2022-11-15T16:54:14;13.82;;;10.65;;
34184;SDS011;20454;48.100;11.776;2022-11-15T16:56:40;14.30;;;9.80;;
34184;SDS011;20454;48.100;11.776;2022-11-15T16:59:08;12.77;;;8.98;;
34184;SDS011;20454;48.100;11.776;2022-11-15T17:04:11;10.20;;;7.60;;
34184;SDS011;20454;48.100;11.776;2022-11-15T17:06:38;6.97;;;5.50;;
34184;SDS011;20454;48.100;11.776;2022-11-15T17:09:05;5.28;;;4.70;;
34184;SDS011;20454;48.100;11.776;2022-11-15T17:11:35;4.75;;;4.35;;
34184;SDS011;20454;48.100;11.776;2022-11-15T17:14:00;6.03;;;4.57;;
34184;SDS011;20454;48.100;11.776;2022-11-15T17:16:26;4.82;;;4.30;;
34184;SDS011;20454;48.100;11.776;2022-11-15T17:18:52;7.03;;;5.18;;
34184;SDS011;20454;48.100;11.776;2022-11-15T17:21:19;5.68;;;5.18;;
34184;SDS011;20454;48.100;11.776;2022-11-15T17:23:46;7.13;;;5.78;;
34184;SDS011;20454;48.100;11.776;2022-11-15T20:59:06;13.95;;;8.77;;
34184;SDS011;20454;48.100;11.776;2022-11-15T21:01:32;12.18;;;8.98;;
34184;SDS011;20454;48.100;11.776;2022-11-15T21:03:57;9.13;;;8.27;;
34184;SDS011;20454;48.100;11.776;2022-11-15T21:06:24;11.05;;;9.27;;
34184;SDS011;20454;48.100;11.776;2022-11-15T21:08:51;8.88;;;7.97;;
34184;SDS011;20454;48.100;11.776;2022-11-15T21:11:36;10.35;;;8.45;;
34184;SDS011;20454;48.100;11.776;2022-11-15T21:14:21;10.82;;;9.05;;
34184;SDS011;20454;48.100;11.776;2022-11-15T21:16:47;10.27;;;8.65;;
34184;SDS011;20454;48.100;11.776;2022-11-15T21:19:12;21.70;;;11.70;;
34184;SDS011;20454;48.100;11.776;2022-11-15T21:21:38;19.35;;;10.88;;
34184;SDS011;20454;48.100;11.776;2022-11-15T21:24:04;18.27;;;9.85;;
34184;SDS011;20454;48.100;11.776;2022-11-15T21:26:33;17.67;;;9.95;;
34184;SDS011;20454;48.100;11.776;2022-11-15T21:28:59;18.30;;;11.27;;
34184;SDS011;20454;48.100;11.776;2022-11-15T21:31:25;17.48;;;11.27;;
34184;SDS011;20454;48.100;11.776;2022-11-15T21:33:51;17.33;;;10.18;;
34184;SDS011;20454;48.100;11.776;2022-11-15T21:36:17;21.15;;;11.48;;
34184;SDS011;20454;48.100;11.776;2022-11-15T21:38:43;15.70;;;10.85;;
34184;SDS011;20454;48.100;11.776;2022-11-15T21:41:08;15.55;;;10.27;;
34184;SDS011;20454;48.100;11.776;2022-11-15T21:43:34;17.70;;;10.50;;
34184;SDS011;20454;48.100;11.776;2022-11-15T21:46:01;18.10;;;10.93;;
34184;SDS011;20454;48.100;11.776;2022-11-15T21:48:30;17.65;;;10.80;;
34184;SDS011;20454;48.100;11.776;2022-11-15T21:50:59;14.02;;;9.45;;
34184;SDS011;20454;48.100;11.776;2022-11-15T21:53:28;15.05;;;9.32;;
34184;SDS011;20454;48.100;11.776;2022-11-15T21:55:55;12.82;;;8.93;;
34184;SDS011;20454;48.100;11.776;2022-11-15T21:58:21;10.07;;;7.68;;
34184;SDS011;20454;48.100;11.776;2022-11-15T22:00:48;10.10;;;8.00;;
34184;SDS011;20454;48.100;11.776;2022-11-15T22:03:32;8.32;;;7.20;;
34184;SDS011;20454;48.100;11.776;2022-11-15T22:05:59;8.57;;;7.30;;
34184;SDS011;20454;48.100;11.776;2022-11-15T22:08:25;8.68;;;7.88;;
34184;SDS011;20454;48.100;11.776;2022-11-15T22:10:51;8.25;;;7.50;;
34184;SDS011;20454;48.100;11.776;2022-11-15T22:13:17;9.55;;;8.13;;
34184;SDS011;20454;48.100;11.776;2022-11-15T22:15:44;8.13;;;7.28;;
34184;SDS011;20454;48.100;11.776;2022-11-15T22:18:11;11.07;;;7.97;;
34184;SDS011;20454;48.100;11.776;2022-11-15T22:20:37;7.97;;;6.78;;
34184;SDS011;20454;48.100;11.776;2022-11-15T22:23:03;8.95;;;8.15;;
34184;SDS011;20454;48.100;11.776;2022-11-15T22:25:30;10.07;;;8.27;;
34184;SDS011;20454;48.100;11.776;2022-11-15T22:27:56;9.10;;;7.70;;
34184;SDS011;20454;48.100;11.776;2022-11-15T22:30:22;12.02;;;7.60;;
34184;SDS011;20454;48.100;11.776;2022-11-15T22:32:48;9.20;;;7.38;;
34184;SDS011;20454;48.100;11.776;2022-11-15T22:35:14;8.23;;;6.70;;
34184;SDS011;20454;48.100;11.776;2022-11-15T22:37:40;8.40;;;7.55;;
34184;SDS011;20454;48.100;11.776;2022-11-15T22:40:06;7.68;;;6.97;;
34184;SDS011;20454;48.100;11.776;2022-11-15T22:42:33;7.53;;;6.82;;
34184;SDS011;20454;48.100;11.776;2022-11-15T22:44:59;8.70;;;7.85;;
34184;SDS011;20454;48.100;11.776;2022-11-15T22:47:25;8.98;;;7.13;;
34184;SDS011;20454;48.100;11.776;2022-11-15T22:49:50;7.90;;;7.10;;
34184;SDS011;20454;48.100;11.776;2022-11-15T22:52:17;6.75;;;6.07;;
34184;SDS011;20454;48.100;11.776;2022-11-15T22:54:43;7.90;;;6.38;;
34184;SDS011;20454;48.100;11.776;2022-11-15T22:57:08;7.68;;;5.53;;
34184;SDS011;20454;48.100;11.776;2022-11-15T22:59:34;6.55;;;6.05;;
34184;SDS011;20454;48.100;11.776;2022-11-15T23:02:01;6.28;;;5.68;;
34184;SDS011;20454;48.100;11.776;2022-11-15T23:04:28;9.95;;;6.07;;
34184;SDS011;20454;48.100;11.776;2022-11-15T23:06:54;6.63;;;5.97;;
34184;SDS011;20454;48.100;11.776;2022-11-15T23:09:21;6.57;;;6.07;;
34184;SDS011;20454;48.100;11.776;2022-11-15T23:11:47;6.10;;;5.50;;
34184;SDS011;20454;48.100;11.776;2022-11-15T23:14:31;8.13;;;6.78;;
34184;SDS011;20454;48.100;11.776;2022-11-15T23:16:57;7.25;;;6.22;;
34184;SDS011;20454;48.100;11.776;2022-11-15T23:19:23;7.28;;;6.22;;
34184;SDS011;20454;48.100;11.776;2022-11-15T23:21:49;7.10;;;6.40;;
34184;SDS011;20454;48.100;11.776;2022-11-15T23:24:33;6.72;;;5.95;;
34184;SDS011;20454;48.100;11.776;2022-11-15T23:27:00;7.15;;;6.45;;
34184;SDS011;20454;48.100;11.776;2022-11-15T23:29:31;7.85;;;6.43;;
34184;SDS011;20454;48.100;11.776;2022-11-15T23:32:17;6.45;;;5.85;;
34184;SDS011;20454;48.100;11.776;2022-11-15T23:35:02;9.13;;;5.47;;
34184;SDS011;20454;48.100;11.776;2022-11-15T23:37:29;6.25;;;5.70;;
34184;SDS011;20454;48.100;11.776;2022-11-15T23:39:55;6.28;;;5.78;;
34184;SDS011;20454;48.100;11.776;2022-11-15T23:42:20;7.70;;;6.07;;
34184;SDS011;20454;48.100;11.776;2022-11-15T23:44:47;5.50;;;4.97;;
34184;SDS011;20454;48.100;11.776;2022-11-15T23:47:14;7.18;;;5.82;;
34184;SDS011;20454;48.100;11.776;2022-11-15T23:49:41;5.82;;;5.25;;
34184;SDS011;20454;48.100;11.776;2022-11-15T23:52:07;6.18;;;5.15;;
34184;SDS011;20454;48.100;11.776;2022-11-15T23:54:33;6.90;;;5.20;;
34184;SDS011;20454;48.100;11.776;2022-11-15T23:56:59;6.57;;;6.05;;
34184;SDS011;20454;48.100;11.776;2022-11-15T23:59:24;6.75;;;6.15;;
